Accueil
METAR-TAF:

METAR-TAF

Aéroports :

NWS Office

Ponape, Micronésie

latitude: 06-58N, longitude: 158-13E, altitude: 39 m

Observation

Le bulletin a été fait il y a 33 minutes, à 13:52 UTC
Vent calme
Température 26°C
Humidité 94%
Pression 1011 hPa
Visibilité: 24.1 km
Nuages fragmentés à une hauteur de 1800 ft
Ciel couvert à une hauteur de 13000 ft

METAR: PTTP 121352Z 00000KT 15SM BKN018 OVC130 26/25 A2986 RMK SLP112 T02550247

Heure: 01:25 (14:25 UTC)


TAF: absent

Observations et prévisions météorologiques de plus de 4000 aéroports (messages METAR et TAF).

Les stations disponibles sont représentées par des disques jaunes et rouges sur la carte.

Passer la souris dessus pour voir le nom de la station.

Cliquer dessus pour voir les observations et prévisions météorologiques.

Pour changer de carte: cliquez sur les boutons verts avec une croix noire pour zoomer, sur le bouton vert avec un tiret pour effectuer un zoom arrière, ou sur les flèches vertes pour les cartes adjacentes.


METAR-TAF: